• Join FlightAware (Why Join?)
  • Login
  • US Flag 
02:21AM EDT


 

Airport Tracker/Info


-or-


 

Live Flight TrackerFlight Track Log ✈ QLK114 ✈ 10-May-2013 ✈ YSSY / SYD - YCFS

Flight Track Log - Related Links

Times and Time Zones

All times are in EDT time to prevent confusion due to time zone crossing. See the QLK114 flight status page for this flight to view local times or setup timezone preferences in your user account.

Time Position Orientation Groundspeed Altitude Reporting Facility
EDT Latitude Longitude Course Direction KTS MPH feet Rate Location/Type
06:01AM -33.9693 151.1935 149° Southeast 115 132 400  Level Aus ATC (RADAR)
06:02AM -33.9874 151.2064 149° Southeast 133 153 1,300 1,560 Climbing Aus ATC (RADAR)
06:03AM -34.0163 151.2402 136° Southeast 152 175 2,900 1,620 Climbing Aus ATC (RADAR)
06:03AM -34.0281 151.2555 133° Southeast 151 174 3,600 1,440 Climbing Aus ATC (RADAR)
06:04AM -34.0061 151.2860 49° Northeast 179 206 4,600 1,440 Climbing Aus ATC (RADAR)
06:05AM -33.9857 151.2947 19° North 187 215 5,300 1,500 Climbing Aus ATC (RADAR)
06:05AM -33.9551 151.3085 20° North 191 220 6,200 1,620 Climbing Aus ATC (RADAR)
06:06AM -33.9190 151.3250 21° North 193 222 7,500 1,560 Climbing Aus ATC (RADAR)
06:06AM -33.8890 151.3392 21° North 200 230 8,300 1,440 Climbing Aus ATC (RADAR)
06:07AM -33.8523 151.3562 21° North 201 231 9,400 1,560 Climbing Aus ATC (RADAR)
06:08AM -33.8302 151.3662 20° North 201 231 10,100 1,320 Climbing Aus ATC (RADAR)
06:09AM -33.7798 151.3891 21° North 201 231 11,300 1,260 Climbing Aus ATC (RADAR)
06:09AM -33.7473 151.4032 20° North 201 231 12,100 1,260 Climbing Aus ATC (RADAR)
06:10AM -33.7165 151.4176 21° North 202 232 12,800 1,020 Climbing Aus ATC (RADAR)
06:10AM -33.6759 151.4359 21° North 207 238 13,500 900 Climbing Aus ATC (RADAR)
06:11AM -33.6529 151.4464 21° North 210 242 13,900 960 Climbing Aus ATC (RADAR)
06:11AM -33.6204 151.4615 21° North 213 245 14,500 960 Climbing Aus ATC (RADAR)
06:12AM -33.5750 151.4822 21° North 217 250 15,300 900 Climbing Aus ATC (RADAR)
06:13AM -33.5425 151.4982 22° Northeast 217 250 15,800 900 Climbing Aus ATC (RADAR)
06:14AM -33.4932 151.5315 29° Northeast 216 249 16,700 960 Climbing Aus ATC (RADAR)
06:14AM -33.4799 151.5403 29° Northeast 217 250 17,000 960 Climbing Aus ATC (RADAR)
06:15AM -33.4496 151.5606 29° Northeast 215 247 17,500 780 Climbing Aus ATC (RADAR)
06:15AM -33.4107 151.5867 29° Northeast 215 247 18,100 900 Climbing Aus ATC (RADAR)
06:16AM -33.3802 151.6072 29° Northeast 215 247 18,700 1,020 Climbing Aus ATC (RADAR)
06:17AM -33.3501 151.6272 29° Northeast 213 245 19,300 660 Climbing Aus ATC (RADAR)
06:17AM -33.3189 151.6479 29° Northeast 221 254 19,500 120 Climbing Aus ATC (RADAR)
06:18AM -33.2868 151.6696 29° Northeast 236 272 19,500  Level Aus ATC (RADAR)
06:19AM -33.2137 151.7185 29° Northeast 260 299 19,500  Level Aus ATC (RADAR)
06:19AM -33.1865 151.7362 29° Northeast 265 305 19,500  Level Aus ATC (RADAR)
06:20AM -33.1456 151.7626 28° Northeast 275 316 19,500  Level Aus ATC (RADAR)
06:21AM -33.1013 151.7918 29° Northeast 274 315 19,500  Level Aus ATC (RADAR)
06:21AM -33.0511 151.8251 29° Northeast 276 318 19,500  Level Aus ATC (RADAR)
06:22AM -33.0227 151.8435 29° Northeast 276 318 19,500  Level Aus ATC (RADAR)
06:22AM -32.9851 151.8678 28° Northeast 274 315 19,500  Level Aus ATC (RADAR)
06:23AM -32.9494 151.8916 29° Northeast 279 321 19,500  Level Aus ATC (RADAR)
06:24AM -32.8758 151.9398 29° Northeast 279 321 19,500  Level Aus ATC (RADAR)
06:24AM -32.8475 151.9583 29° Northeast 277 319 19,500  Level Aus ATC (RADAR)
06:25AM -32.8078 151.9837 28° Northeast 276 318 19,500  Level Aus ATC (RADAR)
06:26AM -32.7587 152.0155 29° Northeast 278 320 19,500  Level Aus ATC (RADAR)
06:26AM -32.7173 152.0435 30° Northeast 279 321 19,500  Level Aus ATC (RADAR)
06:27AM -32.6775 152.0695 29° Northeast 281 323 19,500  Level Aus ATC (RADAR)
06:27AM -32.6404 152.0939 29° Northeast 276 318 19,500  Level Aus ATC (RADAR)
06:28AM -32.6041 152.1175 29° Northeast 276 318 19,500  Level Aus ATC (RADAR)
06:29AM -32.5358 152.1613 28° Northeast 278 320 19,500  Level Aus ATC (RADAR)
06:29AM -32.5077 152.1800 29° Northeast 279 321 19,500  Level Aus ATC (RADAR)
06:30AM -32.4593 152.2113 29° Northeast 274 315 19,500  Level Aus ATC (RADAR)
06:31AM -32.4197 152.2371 29° Northeast 276 318 19,500  Level Aus ATC (RADAR)
06:31AM -32.3802 152.2624 28° Northeast 275 316 19,500  Level Aus ATC (RADAR)
06:32AM -32.3407 152.2877 28° Northeast 274 315 19,500  Level Aus ATC (RADAR)
06:32AM -32.3047 152.3110 29° Northeast 275 316 19,500  Level Aus ATC (RADAR)
06:33AM -32.2651 152.3363 28° Northeast 277 319 19,500  Level Aus ATC (RADAR)
06:34AM -32.2115 152.3714 29° Northeast 274 315 19,500  Level Aus ATC (RADAR)
06:34AM -32.1832 152.3896 29° Northeast 275 316 19,500  Level Aus ATC (RADAR)
06:34AM -32.1551 152.4075 28° Northeast 274 315 19,500  Level Aus ATC (RADAR)
06:35AM -32.1159 152.4328 29° Northeast 274 315 19,500  Level Aus ATC (RADAR)
06:36AM -32.0652 152.4653 28° Northeast 273 314 19,500 -120 Level Aus ATC (RADAR)
06:36AM -32.0255 152.4895 27° Northeast 272 313 19,400 -120 Descending Aus ATC (RADAR)
06:37AM -31.9720 152.5021 11° North 278 320 19,400  Level Aus ATC (RADAR)
06:37AM -31.9403 152.5103 12° North 277 319 19,400  Level Aus ATC (RADAR)
06:38AM -31.8961 152.5225 13° North 278 320 19,400  Level Aus ATC (RADAR)
06:39AM -31.8202 152.5435 13° North 280 322 19,400  Level Aus ATC (RADAR)
06:39AM -31.7891 152.5524 14° North 277 319 19,400  Level Aus ATC (RADAR)
06:40AM -31.7322 152.5679 13° North 279 321 19,400  Level Aus ATC (RADAR)
06:41AM -31.6886 152.5800 13° North 275 316 19,400  Level Aus ATC (RADAR)
06:41AM -31.6445 152.5921 13° North 275 316 19,400  Level Aus ATC (RADAR)
06:42AM -31.5923 152.6065 13° North 268 308 19,400  Level Aus ATC (RADAR)
06:42AM -31.5630 152.6149 14° North 277 319 19,400  Level Aus ATC (RADAR)
06:43AM -31.5190 152.6268 13° North 278 320 19,400  Level Aus ATC (RADAR)
06:44AM -31.4445 152.6475 13° North 275 316 19,400  Level Aus ATC (RADAR)
06:44AM -31.4132 152.6560 13° North 275 316 19,400  Level Aus ATC (RADAR)
06:45AM -31.3720 152.6669 13° North 275 316 19,400  Level Aus ATC (RADAR)
06:46AM -31.3198 152.6816 14° North 275 316 19,400  Level Aus ATC (RADAR)
06:46AM -31.2763 152.6934 13° North 275 316 19,400 -120 Level Aus ATC (RADAR)
06:47AM -31.2323 152.7056 13° North 278 320 19,300 -960 Descending Aus ATC (RADAR)
06:48AM -31.1802 152.7206 14° North 289 333 18,200 -1,620 Descending Aus ATC (RADAR)
06:48AM -31.1337 152.7328 13° North 295 339 17,300 -1,620 Descending Aus ATC (RADAR)
06:49AM -31.0539 152.7541 13° North 294 338 15,700 -1,560 Descending Aus ATC (RADAR)
06:50AM -31.0209 152.7627 13° North 293 337 15,100 -1,500 Descending Aus ATC (RADAR)
06:50AM -30.9764 152.7758 14° North 287 330 14,200 -1,500 Descending Aus ATC (RADAR)
06:51AM -30.9195 152.7913 13° North 280 322 13,100 -1,500 Descending Aus ATC (RADAR)
06:51AM -30.8762 152.8042 14° North 274 315 12,200 -1,620 Descending Aus ATC (RADAR)
06:52AM -30.8262 152.8177 13° North 275 316 11,100 -1,680 Descending Aus ATC (RADAR)
06:53AM -30.7938 152.8257 12° North 284 327 10,400 -1,800 Descending Aus ATC (RADAR)
06:53AM -30.7506 152.8370 13° North 276 318 9,300 -1,620 Descending Aus ATC (RADAR)
06:54AM -30.6931 152.8524 13° North 261 300 8,200 -1,440 Descending Aus ATC (RADAR)
06:54AM -30.6680 152.8593 13° North 264 304 7,700 -1,200 Descending Aus ATC (RADAR)
06:55AM -30.6327 152.8692 14° North 234 269 7,100 -1,140 Descending Aus ATC (RADAR)
06:55AM -30.6026 152.8806 18° North 194 223 6,400 -1,140 Descending Aus ATC (RADAR)
06:56AM -30.5680 152.8853 North 201 231 5,800 -1,140 Descending Aus ATC (RADAR)
06:56AM -30.5458 152.8908 12° North 218 251 5,400 -1,200 Descending Aus ATC (RADAR)
06:59AM -30.3706 153.0607 360° North 200 -1,740 Descending Aus ATC (Calculated)
06:59AM -30.3706 153.0607 40° Northeast 200  Level Aus ATC (Calculated)
07:01AM -30.3166 153.1130 40° Northeast  Level FlightAware Approximate
07:01AM -30.3206 153.1163 63° Northeast  Level Aus ATC (Calculated)
07:02AM -30.3206 153.1164 40° Northeast  Level Estimated
07:03AM -30.3206 153.1164 North  Level Estimated
07:04AM -30.3206 153.1164 North  Level Estimated
07:05AM -30.3206 153.1164 21° North  Level Estimated